createdAt,value
2018-07-06T00:00:37.257Z,0.10
2018-07-06T00:03:17.046Z,1.63
2018-07-06T00:05:56.805Z,0.93
2018-07-06T00:08:36.650Z,0.53
2018-07-06T00:11:16.185Z,0.57
2018-07-06T00:13:55.996Z,1.63
2018-07-06T00:16:36.243Z,0.53
2018-07-06T00:19:15.890Z,0.47
2018-07-06T00:21:55.450Z,0.70
2018-07-06T00:24:35.074Z,0.57
2018-07-06T00:27:14.866Z,0.73
2018-07-06T00:29:54.349Z,1.20
2018-07-06T00:32:33.999Z,0.77
2018-07-06T00:35:07.713Z,1.27
2018-07-06T00:37:47.403Z,1.10
2018-07-06T00:40:27.331Z,0.80
2018-07-06T00:43:07.046Z,0.70
2018-07-06T00:45:46.778Z,0.80
2018-07-06T00:48:26.391Z,0.50
2018-07-06T00:51:06.154Z,0.83
2018-07-06T00:53:45.964Z,1.27
2018-07-06T00:56:19.986Z,1.00
2018-07-06T00:58:59.461Z,0.87
2018-07-06T01:01:39.192Z,0.33
2018-07-06T01:04:18.778Z,0.70
2018-07-06T01:06:58.847Z,1.07
2018-07-06T01:09:38.574Z,1.87
2018-07-06T01:12:23.550Z,1.37
2018-07-06T01:15:07.438Z,0.77
2018-07-06T01:17:47.164Z,0.90
2018-07-06T01:20:28.036Z,0.67
2018-07-06T01:23:07.897Z,1.20
2018-07-06T01:25:47.507Z,0.70
2018-07-06T01:28:27.255Z,1.03
2018-07-06T01:31:07.049Z,1.30
2018-07-06T01:33:46.750Z,0.93
2018-07-06T01:36:26.398Z,0.50
2018-07-06T01:39:06.866Z,0.60
2018-07-06T01:41:46.579Z,0.37
2018-07-06T01:44:26.030Z,1.83
2018-07-06T01:47:06.669Z,1.07
2018-07-06T01:49:46.231Z,1.67
2018-07-06T01:52:25.886Z,1.03
2018-07-06T01:55:06.524Z,0.43
2018-07-06T01:57:46.094Z,0.83
2018-07-06T02:00:25.626Z,1.10
2018-07-06T02:03:05.675Z,1.10
2018-07-06T02:05:45.114Z,0.60
2018-07-06T02:08:18.678Z,1.00
2018-07-06T02:10:59.231Z,1.13
2018-07-06T02:13:38.846Z,0.83
2018-07-06T02:16:18.578Z,1.07
2018-07-06T02:18:58.774Z,1.40
2018-07-06T02:21:38.318Z,1.10
2018-07-06T02:24:18.052Z,1.27
2018-07-06T02:26:58.152Z,0.80
2018-07-06T02:29:37.597Z,0.73
2018-07-06T02:32:17.297Z,0.83
2018-07-06T02:34:57.565Z,0.87
2018-07-06T02:37:37.265Z,1.70
2018-07-06T02:40:16.886Z,0.63
2018-07-06T02:42:56.429Z,1.03
2018-07-06T02:45:36.336Z,0.90
2018-07-06T02:48:16.011Z,1.13
2018-07-06T02:50:55.645Z,0.60
2018-07-06T02:53:35.456Z,1.03
2018-07-06T02:56:15.154Z,1.50
2018-07-06T02:58:54.851Z,1.70
2018-07-06T03:01:34.506Z,0.40
2018-07-06T03:04:14.602Z,1.63
2018-07-06T03:06:54.247Z,0.63
2018-07-06T03:09:34.040Z,1.37
2018-07-06T03:12:14.106Z,1.20
2018-07-06T03:14:53.630Z,1.37
2018-07-06T03:17:33.451Z,0.57
2018-07-06T03:20:13.122Z,1.07
2018-07-06T03:22:52.863Z,0.40
2018-07-06T03:25:32.584Z,1.43
2018-07-06T03:28:12.323Z,0.70
2018-07-06T03:30:51.919Z,1.03
2018-07-06T03:33:31.409Z,1.10
2018-07-06T03:36:11.059Z,1.27
2018-07-06T03:38:50.670Z,1.37
2018-07-06T03:41:30.183Z,1.13
2018-07-06T03:44:09.804Z,1.07
2018-07-06T03:46:49.485Z,0.40
2018-07-06T03:49:29.504Z,0.80
2018-07-06T03:52:09.005Z,1.37
2018-07-06T03:54:48.712Z,1.30
2018-07-06T03:57:29.467Z,0.30
2018-07-06T04:00:08.964Z,0.57
2018-07-06T04:02:48.579Z,1.60
2018-07-06T04:05:28.342Z,0.63
2018-07-06T04:08:07.822Z,1.67
2018-07-06T04:10:47.475Z,1.80
2018-07-06T04:13:27.338Z,0.77
2018-07-06T04:16:08.509Z,1.43
2018-07-06T04:18:48.031Z,1.10
2018-07-06T04:21:27.786Z,1.13
2018-07-06T04:24:07.414Z,0.77
2018-07-06T04:26:46.956Z,0.40
2018-07-06T04:29:26.583Z,0.47
2018-07-06T04:32:06.450Z,0.97
2018-07-06T04:34:45.955Z,1.40
2018-07-06T04:37:25.812Z,0.67
2018-07-06T04:40:05.578Z,0.30
2018-07-06T04:42:45.220Z,0.80
2018-07-06T04:45:24.859Z,0.43
2018-07-06T04:48:04.508Z,0.47
2018-07-06T04:50:45.286Z,0.83
2018-07-06T04:53:24.926Z,0.27
2018-07-06T04:56:04.618Z,0.53
2018-07-06T04:58:44.484Z,0.63
2018-07-06T05:01:24.075Z,0.30
2018-07-06T05:04:03.811Z,0.20
2018-07-06T05:06:43.538Z,0.83
2018-07-06T05:09:23.102Z,0.37
2018-07-06T05:12:02.632Z,1.17
2018-07-06T05:14:42.191Z,0.43
2018-07-06T05:17:22.023Z,0.47
2018-07-06T05:19:55.627Z,0.20
2018-07-06T05:22:35.485Z,0.43
2018-07-06T05:25:15.121Z,0.30
2018-07-06T05:27:54.927Z,0.67
2018-07-06T05:30:34.747Z,0.10
2018-07-06T05:33:15.543Z,1.30
2018-07-06T05:35:55.379Z,0.20
2018-07-06T05:38:34.978Z,0.40
2018-07-06T05:41:14.743Z,0.37
2018-07-06T05:43:54.262Z,0.73
2018-07-06T05:46:33.953Z,0.23
2018-07-06T05:49:13.618Z,1.30
2018-07-06T05:51:53.486Z,0.47
2018-07-06T05:54:33.233Z,0.87
2018-07-06T05:57:06.981Z,0.43
2018-07-06T05:59:46.722Z,0.70
2018-07-06T06:02:26.773Z,0.10
2018-07-06T06:05:06.458Z,0.50
2018-07-06T06:07:33.693Z,1.00
2018-07-06T06:10:01.891Z,0.97
2018-07-06T06:12:31.058Z,1.10
2018-07-06T06:14:59.383Z,0.77
2018-07-06T06:17:27.587Z,0.43
2018-07-06T06:19:55.798Z,1.77
2018-07-06T06:22:24.026Z,0.43
2018-07-06T06:24:52.468Z,0.67
2018-07-06T06:27:20.834Z,0.40
2018-07-06T06:29:49.966Z,0.50
2018-07-06T06:32:18.138Z,0.53
2018-07-06T06:34:46.431Z,0.83
2018-07-06T06:37:14.829Z,0.67
2018-07-06T06:39:43.022Z,1.20
2018-07-06T06:42:11.211Z,1.50
2018-07-06T06:44:39.499Z,0.87
2018-07-06T06:47:07.854Z,0.33
2018-07-06T06:49:36.056Z,0.87
2018-07-06T06:52:04.324Z,1.53
2018-07-06T06:54:32.559Z,1.20
2018-07-06T06:57:00.537Z,1.30
2018-07-06T06:59:28.889Z,1.67
2018-07-06T07:01:57.102Z,0.63
2018-07-06T07:04:25.334Z,0.33
2018-07-06T07:06:54.296Z,1.93
2018-07-06T07:09:23.239Z,1.07
2018-07-06T07:11:51.545Z,0.70
2018-07-06T07:14:19.783Z,0.63
2018-07-06T07:16:48.058Z,0.50
2018-07-06T07:19:16.260Z,1.90
2018-07-06T07:21:44.542Z,1.23
2018-07-06T07:24:12.742Z,2.07
2018-07-06T07:26:40.988Z,1.50
2018-07-06T07:29:09.199Z,1.13
2018-07-06T07:31:37.669Z,1.00
2018-07-06T07:34:06.689Z,1.90
2018-07-06T07:36:34.923Z,1.67
2018-07-06T07:39:04.105Z,1.43
2018-07-06T07:41:32.298Z,1.67
2018-07-06T07:44:00.564Z,0.83
2018-07-06T07:46:28.997Z,0.87
2018-07-06T07:48:57.171Z,0.50
2018-07-06T07:52:06.994Z,0.63
2018-07-06T07:54:50.305Z,1.23
2018-07-06T07:57:19.010Z,0.40
2018-07-06T07:59:47.811Z,1.17
2018-07-06T08:02:16.229Z,1.23
2018-07-06T08:04:44.534Z,1.23
2018-07-06T08:07:12.718Z,1.07
2018-07-06T08:09:40.947Z,1.20
2018-07-06T08:12:09.154Z,1.27
2018-07-06T08:14:37.520Z,0.80
2018-07-06T08:17:05.842Z,0.97
2018-07-06T08:19:34.059Z,1.07
2018-07-06T08:22:02.270Z,1.17
2018-07-06T08:24:30.741Z,0.83
2018-07-06T08:26:59.431Z,0.43
2018-07-06T08:29:27.634Z,1.03
2018-07-06T08:31:55.843Z,0.97
2018-07-06T08:34:35.602Z,0.97
2018-07-06T08:37:51.007Z,1.13
2018-07-06T08:40:19.891Z,1.10
2018-07-06T08:42:52.182Z,1.80
2018-07-06T08:45:20.412Z,0.77
2018-07-06T08:47:49.087Z,0.63
2018-07-06T08:50:17.311Z,0.63
2018-07-06T08:52:46.731Z,0.87
2018-07-06T08:55:15.033Z,1.10
2018-07-06T08:57:44.547Z,0.97
2018-07-06T09:00:13.103Z,0.63
2018-07-06T09:02:41.343Z,0.60
2018-07-06T09:05:10.465Z,0.93
2018-07-06T09:07:39.034Z,1.13
2018-07-06T09:10:07.434Z,0.73
2018-07-06T09:12:35.865Z,0.27
2018-07-06T09:15:04.843Z,0.90
2018-07-06T09:17:33.083Z,0.97
2018-07-06T09:20:01.902Z,0.43
2018-07-06T09:22:30.964Z,0.60
2018-07-06T09:25:00.482Z,1.00
2018-07-06T09:27:29.442Z,1.03
2018-07-06T09:29:57.690Z,0.13
2018-07-06T09:32:25.940Z,0.93
2018-07-06T09:34:54.191Z,0.83
2018-07-06T09:37:23.019Z,0.20
2018-07-06T09:39:51.751Z,0.60
2018-07-06T09:42:20.144Z,0.57
2018-07-06T09:44:48.410Z,0.30
2018-07-06T09:47:17.424Z,1.10
2018-07-06T09:49:46.320Z,0.53
2018-07-06T09:52:15.261Z,0.73
2018-07-06T09:54:43.738Z,0.60
2018-07-06T09:57:11.963Z,0.60
2018-07-06T09:59:40.319Z,0.20
2018-07-06T10:02:08.646Z,0.50
2018-07-06T10:04:37.488Z,0.60
2018-07-06T10:07:05.967Z,0.20
2018-07-06T10:09:34.150Z,0.47
2018-07-06T10:12:02.431Z,0.60
2018-07-06T10:14:31.350Z,0.23
2018-07-06T10:16:59.747Z,0.67
2018-07-06T10:19:28.407Z,0.20
2018-07-06T10:21:56.378Z,0.83
2018-07-06T10:24:24.532Z,0.47
2018-07-06T10:26:53.064Z,0.43
2018-07-06T10:29:36.683Z,0.20
2018-07-06T10:32:17.356Z,0.30
2018-07-06T10:34:46.296Z,0.20
2018-07-06T10:37:14.916Z,0.20
2018-07-06T10:39:44.415Z,0.27
2018-07-06T10:42:12.591Z,0.13
2018-07-06T10:44:41.158Z,0.30
2018-07-06T10:47:09.851Z,0.23
2018-07-06T10:49:38.100Z,0.37
2018-07-06T10:52:06.681Z,0.30
2018-07-06T10:54:35.216Z,0.53
2018-07-06T10:57:03.427Z,0.00
2018-07-06T10:59:31.641Z,0.00
2018-07-06T11:02:00.125Z,0.63
2018-07-06T11:04:29.446Z,0.67
2018-07-06T11:06:57.934Z,0.30
2018-07-06T11:09:26.184Z,0.10
2018-07-06T11:11:54.633Z,0.57
2018-07-06T11:14:23.174Z,1.03
2018-07-06T11:16:51.718Z,0.10
2018-07-06T11:19:19.993Z,0.50
2018-07-06T11:21:48.193Z,0.30
2018-07-06T11:24:16.472Z,0.10
2018-07-06T11:26:45.555Z,0.20
2018-07-06T11:29:14.600Z,0.43
2018-07-06T11:31:42.853Z,0.30
2018-07-06T11:34:11.096Z,0.50
2018-07-06T11:36:39.375Z,0.13
2018-07-06T11:39:08.727Z,0.10
2018-07-06T11:41:37.931Z,0.10
2018-07-06T11:44:06.365Z,0.17
2018-07-06T11:46:34.616Z,0.50
2018-07-06T11:49:02.964Z,0.23
2018-07-06T11:51:31.315Z,3.33
2018-07-06T11:54:00.075Z,3.13
2018-07-06T11:56:28.369Z,3.30
2018-07-06T11:58:56.582Z,3.17
2018-07-06T12:01:24.868Z,2.90
2018-07-06T12:03:53.991Z,3.70
2018-07-06T12:06:22.498Z,3.13
2018-07-06T12:08:50.784Z,2.57
2018-07-06T12:11:19.144Z,2.60
2018-07-06T12:13:47.366Z,2.77
2018-07-06T12:16:15.721Z,2.70
2018-07-06T12:18:44.132Z,2.90
2018-07-06T12:21:12.479Z,2.43
2018-07-06T12:23:40.613Z,2.33
2018-07-06T12:26:08.957Z,2.50
2018-07-06T12:28:37.320Z,2.10
2018-07-06T12:31:05.519Z,2.47
2018-07-06T12:33:34.030Z,1.80
2018-07-06T12:36:02.266Z,2.20
2018-07-06T12:38:30.922Z,2.30
2018-07-06T12:40:59.528Z,2.20
2018-07-06T12:43:27.751Z,2.40
2018-07-06T12:45:55.926Z,2.10
2018-07-06T12:48:24.126Z,2.00
2018-07-06T12:50:52.506Z,1.80
2018-07-06T12:53:21.171Z,2.10
2018-07-06T12:55:49.355Z,2.13
2018-07-06T12:58:17.675Z,2.00
2018-07-06T13:00:45.993Z,1.90
2018-07-06T13:03:14.467Z,1.80
2018-07-06T13:05:42.729Z,2.07
2018-07-06T13:08:10.948Z,1.90
2018-07-06T13:10:39.178Z,1.77
2018-07-06T13:13:07.807Z,1.80
2018-07-06T13:15:36.023Z,1.87
2018-07-06T13:18:04.260Z,1.80
2018-07-06T13:20:32.467Z,1.90
2018-07-06T13:23:01.367Z,1.73
2018-07-06T13:25:30.038Z,1.63
2018-07-06T13:27:59.190Z,1.60
2018-07-06T13:30:27.405Z,1.50
2018-07-06T13:32:55.688Z,1.80
2018-07-06T13:35:23.887Z,1.63
2018-07-06T13:37:52.314Z,1.40
2018-07-06T13:40:20.562Z,1.80
2018-07-06T13:42:48.832Z,1.43
2018-07-06T13:45:17.098Z,1.50
2018-07-06T13:47:45.487Z,1.50
2018-07-06T13:50:13.839Z,1.50
2018-07-06T13:52:42.085Z,1.40
2018-07-06T13:55:10.323Z,1.40
2018-07-06T13:57:38.741Z,1.37
2018-07-06T14:00:07.502Z,1.40
2018-07-06T14:02:35.745Z,1.50
2018-07-06T14:05:04.068Z,1.30
2018-07-06T14:07:32.302Z,1.53
2018-07-06T14:10:00.782Z,1.37
2018-07-06T14:12:29.304Z,1.60
2018-07-06T14:14:57.510Z,1.43
2018-07-06T14:17:27.456Z,1.50
2018-07-06T14:19:55.712Z,1.30
2018-07-06T14:22:23.906Z,1.40
2018-07-06T14:24:52.260Z,1.50
2018-07-06T14:27:20.471Z,1.53
2018-07-06T14:29:48.762Z,1.60
2018-07-06T14:32:16.958Z,1.50
2018-07-06T14:34:45.355Z,1.70
2018-07-06T14:37:13.536Z,1.40
2018-07-06T14:39:41.724Z,1.47
2018-07-06T14:42:09.976Z,1.50
2018-07-06T14:44:38.500Z,1.47
2018-07-06T14:47:06.888Z,1.40
2018-07-06T14:49:35.392Z,1.33
2018-07-06T14:52:03.583Z,1.13
2018-07-06T14:54:31.863Z,1.23
2018-07-06T14:57:00.470Z,1.33
2018-07-06T14:59:28.928Z,1.40
2018-07-06T15:01:57.164Z,1.40
2018-07-06T15:04:25.354Z,1.50
2018-07-06T15:06:53.879Z,1.27
2018-07-06T15:09:28.996Z,1.43
2018-07-06T15:11:57.248Z,1.27
2018-07-06T15:14:25.535Z,1.30
2018-07-06T15:16:54.005Z,1.30
2018-07-06T15:19:22.514Z,1.50
2018-07-06T15:21:50.747Z,1.33
2018-07-06T15:24:18.963Z,1.30
2018-07-06T15:26:47.192Z,1.40
2018-07-06T15:29:15.465Z,1.10
2018-07-06T15:31:43.717Z,1.30
2018-07-06T15:34:11.926Z,1.37
2018-07-06T15:36:40.194Z,1.40
2018-07-06T15:39:08.494Z,1.33
2018-07-06T15:41:37.090Z,1.23
2018-07-06T15:44:05.349Z,1.30
2018-07-06T15:46:33.566Z,1.20
2018-07-06T15:49:02.478Z,1.20
2018-07-06T15:51:30.735Z,1.07
2018-07-06T15:53:59.793Z,1.20
2018-07-06T15:56:28.043Z,1.37
2018-07-06T15:58:56.291Z,1.40
2018-07-06T16:01:24.553Z,1.50
2018-07-06T16:03:53.459Z,1.60
2018-07-06T16:06:22.234Z,1.13
2018-07-06T16:08:50.610Z,1.60
2018-07-06T16:11:18.840Z,1.30
2018-07-06T16:13:47.118Z,1.57
2018-07-06T16:16:15.986Z,1.40
2018-07-06T16:18:44.216Z,1.60
2018-07-06T16:21:12.448Z,1.30
2018-07-06T16:23:40.655Z,1.13
2018-07-06T16:26:09.220Z,1.43
2018-07-06T16:28:37.464Z,1.20
2018-07-06T16:31:05.821Z,1.40
2018-07-06T16:33:34.054Z,1.40
2018-07-06T16:36:02.321Z,1.80
2018-07-06T16:38:31.609Z,1.50
2018-07-06T16:41:00.171Z,1.40
2018-07-06T16:43:28.467Z,1.37
2018-07-06T16:45:56.702Z,1.40
2018-07-06T16:48:24.905Z,1.53
2018-07-06T16:50:53.232Z,1.33
2018-07-06T16:53:21.502Z,1.23
2018-07-06T16:55:49.682Z,2.20
2018-07-06T16:58:17.873Z,1.63
2018-07-06T17:00:46.310Z,1.40
2018-07-06T17:03:14.611Z,1.47
2018-07-06T17:05:42.826Z,1.60
2018-07-06T17:08:11.034Z,1.40
2018-07-06T17:10:39.306Z,1.40
2018-07-06T17:13:08.035Z,1.60
2018-07-06T17:15:36.215Z,1.30
2018-07-06T17:18:04.481Z,1.67
2018-07-06T17:20:32.743Z,1.40
2018-07-06T17:23:01.084Z,1.90
2018-07-06T17:25:29.387Z,1.90
2018-07-06T17:27:57.625Z,1.80
2018-07-06T17:30:25.910Z,1.77
2018-07-06T17:32:54.371Z,1.73
2018-07-06T17:35:23.035Z,1.63
2018-07-06T17:37:52.334Z,1.57
2018-07-06T17:40:20.530Z,1.57
2018-07-06T17:42:48.737Z,1.60
2018-07-06T17:45:16.751Z,1.53
2018-07-06T17:47:45.054Z,1.40
2018-07-06T17:50:13.275Z,1.67
2018-07-06T17:52:41.484Z,2.03
2018-07-06T17:55:09.729Z,2.57
2018-07-06T17:57:38.119Z,2.03
2018-07-06T18:00:06.868Z,1.70
2018-07-06T18:02:35.119Z,1.93
2018-07-06T18:05:03.911Z,1.90
2018-07-06T18:07:32.467Z,1.97
2018-07-06T18:10:01.084Z,2.37
2018-07-06T18:12:29.589Z,2.47
2018-07-06T18:14:57.887Z,2.20
2018-07-06T18:17:26.266Z,2.10
2018-07-06T18:19:54.566Z,2.00
2018-07-06T18:22:23.305Z,2.23
2018-07-06T18:24:52.863Z,2.47
2018-07-06T18:27:21.149Z,2.47
2018-07-06T18:29:49.567Z,2.40
2018-07-06T18:32:17.787Z,2.60
2018-07-06T18:34:46.086Z,2.57
2018-07-06T18:37:14.459Z,2.40
2018-07-06T18:39:42.654Z,2.73
2018-07-06T18:42:10.922Z,2.33
2018-07-06T18:44:39.245Z,2.70
2018-07-06T18:47:07.642Z,2.40
2018-07-06T18:49:35.897Z,2.63
2018-07-06T18:52:04.155Z,2.50
2018-07-06T18:54:32.344Z,2.50
2018-07-06T18:57:01.472Z,2.50
2018-07-06T18:59:29.882Z,2.57
2018-07-06T19:01:58.063Z,3.60
2018-07-06T19:04:26.299Z,2.53
2018-07-06T19:06:54.661Z,2.80
2018-07-06T19:09:23.162Z,2.60
2018-07-06T19:11:51.403Z,2.63
2018-07-06T19:14:19.672Z,2.70
2018-07-06T19:16:47.887Z,2.43
2018-07-06T19:19:16.763Z,2.83
2018-07-06T19:21:45.341Z,2.80
2018-07-06T19:24:13.700Z,2.73
2018-07-06T19:26:42.060Z,2.60
2018-07-06T19:29:10.246Z,3.20
2018-07-06T19:31:38.523Z,3.10
2018-07-06T19:34:06.930Z,2.67
2018-07-06T19:36:35.231Z,2.80
2018-07-06T19:39:04.170Z,2.93
2018-07-06T19:41:32.399Z,2.87
2018-07-06T19:44:00.751Z,3.00
2018-07-06T19:46:28.997Z,3.00
2018-07-06T19:48:57.276Z,3.00
2018-07-06T19:51:25.474Z,2.67
2018-07-06T19:53:53.894Z,3.10
2018-07-06T19:56:22.317Z,3.23
2018-07-06T19:58:50.534Z,3.13
2018-07-06T20:01:18.733Z,3.27
2018-07-06T20:03:46.945Z,3.00
2018-07-06T20:06:15.407Z,3.17
2018-07-06T20:08:43.606Z,3.37
2018-07-06T20:11:11.830Z,3.33
2018-07-06T20:13:40.330Z,3.67
2018-07-06T20:16:08.670Z,3.33
2018-07-06T20:18:37.507Z,3.40
2018-07-06T20:21:05.754Z,3.03
2018-07-06T20:23:33.995Z,3.33
2018-07-06T20:26:02.183Z,3.40
2018-07-06T20:28:31.110Z,3.30
2018-07-06T20:31:00.982Z,3.10
2018-07-06T20:33:29.264Z,4.63
2018-07-06T20:35:57.534Z,9.00
2018-07-06T20:38:26.009Z,4.33
2018-07-06T20:40:54.342Z,3.60
2018-07-06T20:43:22.710Z,3.63
2018-07-06T20:45:50.922Z,3.77
2018-07-06T20:48:19.125Z,3.27
2018-07-06T20:50:47.362Z,3.70
2018-07-06T20:53:15.779Z,3.40
2018-07-06T20:55:45.073Z,3.50
2018-07-06T20:58:13.267Z,3.60
2018-07-06T21:00:41.524Z,3.37
2018-07-06T21:03:09.838Z,3.83
2018-07-06T21:05:38.265Z,3.73
2018-07-06T21:08:07.382Z,3.63
2018-07-06T21:10:35.700Z,3.90
2018-07-06T21:13:03.963Z,3.53
2018-07-06T21:15:32.157Z,3.60
2018-07-06T21:18:00.460Z,3.50
2018-07-06T21:20:28.745Z,3.27
2018-07-06T21:22:56.925Z,3.60
2018-07-06T21:25:25.193Z,3.70
2018-07-06T21:27:53.740Z,3.80
2018-07-06T21:30:23.039Z,3.43
2018-07-06T21:32:51.202Z,3.50
2018-07-06T21:35:19.382Z,3.43
2018-07-06T21:37:47.758Z,3.67
2018-07-06T21:40:16.583Z,3.23
2018-07-06T21:42:44.949Z,3.57
2018-07-06T21:45:13.147Z,3.67
2018-07-06T21:47:41.334Z,3.30
2018-07-06T21:50:09.885Z,3.23
2018-07-06T21:52:38.753Z,4.03
2018-07-06T21:55:11.694Z,3.63
2018-07-06T21:57:39.870Z,3.67
2018-07-06T22:00:08.115Z,3.40
2018-07-06T22:02:36.354Z,3.10
2018-07-06T22:05:04.547Z,3.57
2018-07-06T22:07:32.746Z,3.53
2018-07-06T22:10:01.911Z,3.63
2018-07-06T22:12:29.955Z,3.53
2018-07-06T22:14:58.126Z,3.17
2018-07-06T22:17:26.362Z,3.97
2018-07-06T22:19:54.542Z,3.33
2018-07-06T22:22:22.862Z,4.10
2018-07-06T22:24:51.022Z,3.67
2018-07-06T22:27:19.198Z,3.47
2018-07-06T22:29:47.375Z,3.63
2018-07-06T22:32:15.690Z,3.73
2018-07-06T22:34:43.908Z,3.80
2018-07-06T22:37:12.070Z,3.37
2018-07-06T22:39:40.266Z,3.70
2018-07-06T22:42:08.651Z,3.80
2018-07-06T22:44:36.951Z,4.07
2018-07-06T22:47:05.166Z,3.77
2018-07-06T22:49:33.351Z,3.83
2018-07-06T22:52:01.575Z,3.70
2018-07-06T22:54:30.635Z,3.70
2018-07-06T22:56:58.882Z,3.83
2018-07-06T22:59:27.048Z,3.90
2018-07-06T23:01:55.231Z,3.40
2018-07-06T23:04:23.530Z,3.87
2018-07-06T23:06:51.875Z,3.70
2018-07-06T23:09:20.282Z,4.13
2018-07-06T23:11:48.550Z,4.20
2018-07-06T23:14:16.810Z,3.33
2018-07-06T23:16:44.996Z,4.03
2018-07-06T23:19:13.191Z,3.90
2018-07-06T23:21:41.357Z,3.93
2018-07-06T23:24:09.553Z,3.80
2018-07-06T23:26:37.800Z,3.73
2018-07-06T23:29:06.073Z,4.00
2018-07-06T23:31:34.266Z,4.47
2018-07-06T23:34:02.482Z,3.77
2018-07-06T23:36:30.777Z,3.60
2018-07-06T23:38:59.294Z,3.80
2018-07-06T23:41:27.481Z,3.70
2018-07-06T23:43:56.035Z,4.10
2018-07-06T23:46:24.531Z,4.13
2018-07-06T23:48:52.820Z,3.70
2018-07-06T23:51:20.983Z,4.57
2018-07-06T23:53:49.031Z,4.40
2018-07-06T23:56:17.478Z,4.43
2018-07-06T23:58:45.702Z,3.80
